createdAt,value
2023-01-07T00:00:19.332Z,6.06
2023-01-07T00:03:05.058Z,6.17
2023-01-07T00:05:51.140Z,6.15
2023-01-07T00:08:39.409Z,6.27
2023-01-07T00:11:30.808Z,6.08
2023-01-07T00:14:16.555Z,6.29
2023-01-07T00:17:01.781Z,6.30
2023-01-07T00:19:47.131Z,6.13
2023-01-07T00:22:32.807Z,6.23
2023-01-07T00:25:18.275Z,6.24
2023-01-07T00:28:04.038Z,6.26
2023-01-07T00:30:49.765Z,6.54
2023-01-07T00:33:35.568Z,6.56
2023-01-07T00:36:22.401Z,6.57
2023-01-07T00:39:14.539Z,6.63
2023-01-07T00:42:18.893Z,6.65
2023-01-07T00:45:04.621Z,6.56
2023-01-07T00:47:53.592Z,6.65
2023-01-07T00:50:39.450Z,6.76
2023-01-07T00:53:25.188Z,6.72
2023-01-07T00:56:12.580Z,6.40
2023-01-07T00:58:58.304Z,6.48
2023-01-07T01:01:48.450Z,6.23
2023-01-07T01:04:38.115Z,6.24
2023-01-07T01:07:23.847Z,6.41
2023-01-07T01:10:17.953Z,5.89
2023-01-07T01:13:03.713Z,6.33
2023-01-07T01:15:49.493Z,6.38
2023-01-07T01:18:35.689Z,6.05
2023-01-07T01:21:29.949Z,6.46
2023-01-07T01:24:20.080Z,6.25
2023-01-07T01:27:14.289Z,6.62
2023-01-07T01:33:24.003Z,6.40
2023-01-07T01:39:24.267Z,6.64
2023-01-07T01:45:43.495Z,6.90
2023-01-07T01:48:49.937Z,6.74
2023-01-07T01:51:41.493Z,6.85
2023-01-07T01:54:27.880Z,6.94
2023-01-07T01:57:14.261Z,6.94
2023-01-07T02:00:00.167Z,7.00
2023-01-07T02:02:57.066Z,7.18
2023-01-07T02:05:43.192Z,7.27
2023-01-07T02:08:28.772Z,7.20
2023-01-07T02:11:43.721Z,7.48
2023-01-07T02:15:04.986Z,7.43
2023-01-07T02:18:11.789Z,7.50
2023-01-07T02:21:03.670Z,7.65
2023-01-07T02:24:10.189Z,7.60
2023-01-07T02:27:15.639Z,7.63
2023-01-07T02:30:33.863Z,7.61
2023-01-07T02:33:33.186Z,7.60
2023-01-07T02:36:35.624Z,7.61
2023-01-07T02:39:38.784Z,7.70
2023-01-07T02:42:57.556Z,7.81
2023-01-07T02:46:10.722Z,7.70
2023-01-07T02:49:09.708Z,7.77
2023-01-07T02:51:55.267Z,7.72
2023-01-07T02:54:40.955Z,7.74
2023-01-07T02:57:55.599Z,7.90
2023-01-07T03:01:17.335Z,7.84
2023-01-07T03:04:21.671Z,7.81
2023-01-07T03:07:23.909Z,7.89
2023-01-07T03:10:26.601Z,8.05
2023-01-07T03:13:17.512Z,7.82
2023-01-07T03:16:15.787Z,7.77
2023-01-07T03:19:06.137Z,7.65
2023-01-07T03:21:54.405Z,7.77
2023-01-07T03:24:40.974Z,7.68
2023-01-07T03:27:29.028Z,7.76
2023-01-07T03:30:17.234Z,7.82
2023-01-07T03:33:15.202Z,7.84
2023-01-07T03:36:03.645Z,7.87
2023-01-07T03:38:50.929Z,7.93
2023-01-07T03:41:57.238Z,8.13
2023-01-07T03:44:42.673Z,8.09
2023-01-07T03:47:28.900Z,8.10
2023-01-07T03:50:35.049Z,8.16
2023-01-07T03:53:20.656Z,8.25
2023-01-07T03:56:06.131Z,8.27
2023-01-07T03:58:51.526Z,8.27
2023-01-07T04:01:37.305Z,8.37
2023-01-07T04:04:23.085Z,8.34
2023-01-07T04:07:08.266Z,8.40
2023-01-07T04:09:53.733Z,8.45
2023-01-07T04:12:39.138Z,8.39
2023-01-07T04:15:24.995Z,8.53
2023-01-07T04:18:10.712Z,8.55
2023-01-07T04:20:56.182Z,8.53
2023-01-07T04:23:41.916Z,8.58
2023-01-07T04:26:27.177Z,8.64
2023-01-07T04:29:12.519Z,8.51
2023-01-07T04:31:57.880Z,8.80
2023-01-07T04:34:43.467Z,8.85
2023-01-07T04:37:29.261Z,8.79
2023-01-07T04:40:14.653Z,8.90
2023-01-07T04:43:00.009Z,8.92
2023-01-07T04:45:45.481Z,8.92
2023-01-07T04:48:31.777Z,8.95
2023-01-07T04:51:17.330Z,8.93
2023-01-07T04:54:02.799Z,8.87
2023-01-07T04:56:48.569Z,9.01
2023-01-07T04:59:35.050Z,9.01
2023-01-07T05:02:24.014Z,9.11
2023-01-07T05:05:13.141Z,8.53
2023-01-07T05:07:59.121Z,8.75
2023-01-07T05:10:48.636Z,8.79
2023-01-07T05:13:37.412Z,8.71
2023-01-07T05:16:29.144Z,8.71
2023-01-07T05:19:23.654Z,9.12
2023-01-07T05:22:12.471Z,8.55
2023-01-07T05:25:11.063Z,9.00
2023-01-07T05:27:56.797Z,8.94
2023-01-07T05:30:42.599Z,9.29
2023-01-07T05:33:28.577Z,9.25
2023-01-07T05:36:14.172Z,9.36
2023-01-07T05:38:59.449Z,9.32
2023-01-07T05:41:44.966Z,9.21
2023-01-07T05:44:30.342Z,9.12
2023-01-07T05:47:15.766Z,9.38
2023-01-07T05:50:01.069Z,9.29
2023-01-07T05:52:46.574Z,9.36
2023-01-07T05:55:32.244Z,9.24
2023-01-07T05:58:17.569Z,9.15
2023-01-07T06:01:03.656Z,9.38
2023-01-07T06:03:49.143Z,9.47
2023-01-07T06:06:34.591Z,9.43
2023-01-07T06:09:20.447Z,9.43
2023-01-07T06:12:05.792Z,9.35
2023-01-07T06:14:51.218Z,9.30
2023-01-07T06:17:36.575Z,9.34
2023-01-07T06:20:21.896Z,9.27
2023-01-07T06:23:07.330Z,9.49
2023-01-07T06:25:52.962Z,9.34
2023-01-07T06:28:38.391Z,9.47
2023-01-07T06:31:24.045Z,9.41
2023-01-07T06:34:09.832Z,9.45
2023-01-07T06:36:55.156Z,9.50
2023-01-07T06:39:40.935Z,9.44
2023-01-07T06:42:26.763Z,9.47
2023-01-07T06:45:12.321Z,9.57
2023-01-07T06:47:58.417Z,9.51
2023-01-07T06:50:44.669Z,9.53
2023-01-07T06:53:30.188Z,9.53
2023-01-07T06:56:15.589Z,9.54
2023-01-07T06:59:01.016Z,9.55
2023-01-07T07:01:46.949Z,9.55
2023-01-07T07:04:32.271Z,9.50
2023-01-07T07:07:18.106Z,9.60
2023-01-07T07:10:07.650Z,9.68
2023-01-07T07:12:53.553Z,9.66
2023-01-07T07:15:39.152Z,9.67
2023-01-07T07:18:24.711Z,9.71
2023-01-07T07:21:10.361Z,9.78
2023-01-07T07:23:55.988Z,9.70
2023-01-07T07:26:41.351Z,9.75
2023-01-07T07:29:26.957Z,9.89
2023-01-07T07:32:12.233Z,9.65
2023-01-07T07:34:57.871Z,9.80
2023-01-07T07:37:43.552Z,9.67
2023-01-07T07:40:29.154Z,9.81
2023-01-07T07:43:15.220Z,9.71
2023-01-07T07:46:00.494Z,9.86
2023-01-07T07:48:48.824Z,9.71
2023-01-07T07:51:34.677Z,9.86
2023-01-07T07:54:21.312Z,9.87
2023-01-07T07:57:08.738Z,9.86
2023-01-07T07:59:54.065Z,9.88
2023-01-07T08:02:39.325Z,9.93
2023-01-07T08:05:25.334Z,9.97
2023-01-07T08:08:12.897Z,10.00
2023-01-07T08:10:58.621Z,9.97
2023-01-07T08:13:44.793Z,10.02
2023-01-07T08:16:30.263Z,10.01
2023-01-07T08:19:15.776Z,10.10
2023-01-07T08:22:01.133Z,10.11
2023-01-07T08:24:46.518Z,10.19
2023-01-07T08:27:31.870Z,10.20
2023-01-07T08:30:17.319Z,10.06
2023-01-07T08:33:07.305Z,10.23
2023-01-07T08:35:52.647Z,10.15
2023-01-07T08:38:38.268Z,10.15
2023-01-07T08:41:24.762Z,10.17
2023-01-07T08:44:10.204Z,10.11
2023-01-07T08:46:56.070Z,10.21
2023-01-07T08:49:41.277Z,10.19
2023-01-07T08:52:26.721Z,10.11
2023-01-07T08:55:12.358Z,10.15
2023-01-07T08:57:57.802Z,10.31
2023-01-07T09:00:43.729Z,10.48
2023-01-07T09:03:29.287Z,10.28
2023-01-07T09:06:14.964Z,10.38
2023-01-07T09:09:00.542Z,10.49
2023-01-07T09:11:46.321Z,10.59
2023-01-07T09:14:32.364Z,10.78
2023-01-07T09:17:17.953Z,10.74
2023-01-07T09:20:06.796Z,10.93
2023-01-07T09:22:52.178Z,10.84
2023-01-07T09:25:37.615Z,10.95
2023-01-07T09:28:23.487Z,11.18
2023-01-07T09:31:09.370Z,11.17
2023-01-07T09:33:54.772Z,10.98
2023-01-07T09:36:40.086Z,10.94
2023-01-07T09:39:25.633Z,11.09
2023-01-07T09:42:13.773Z,11.31
2023-01-07T09:45:10.178Z,11.35
2023-01-07T09:47:58.514Z,11.62
2023-01-07T09:50:55.450Z,11.67
2023-01-07T09:53:46.997Z,11.91
2023-01-07T09:56:34.321Z,11.85
2023-01-07T09:59:20.050Z,12.32
2023-01-07T10:02:29.875Z,13.54
2023-01-07T10:05:32.263Z,14.85
2023-01-07T10:08:44.541Z,15.78
2023-01-07T10:11:38.540Z,16.08
2023-01-07T10:14:35.344Z,16.99
2023-01-07T10:17:40.751Z,16.77
2023-01-07T10:20:50.034Z,16.98
2023-01-07T10:23:46.312Z,16.32
2023-01-07T10:26:42.920Z,16.60
2023-01-07T10:29:31.986Z,15.39
2023-01-07T10:32:22.869Z,14.61
2023-01-07T10:35:17.391Z,14.09
2023-01-07T10:38:04.663Z,14.06
2023-01-07T10:40:55.384Z,13.57
2023-01-07T10:44:36.622Z,13.50
2023-01-07T10:47:43.558Z,13.45
2023-01-07T10:50:47.291Z,13.34
2023-01-07T10:54:02.907Z,13.54
2023-01-07T10:56:54.580Z,13.20
2023-01-07T10:59:43.322Z,13.38
2023-01-07T11:02:29.359Z,13.44
2023-01-07T11:05:15.194Z,13.57
2023-01-07T11:08:09.955Z,14.19
2023-01-07T11:10:56.525Z,13.76
2023-01-07T11:13:56.038Z,13.49
2023-01-07T11:16:47.885Z,13.08
2023-01-07T11:19:45.018Z,12.59
2023-01-07T11:22:33.647Z,12.38
2023-01-07T11:25:29.720Z,12.33
2023-01-07T11:28:20.235Z,12.05
2023-01-07T11:31:06.092Z,12.15
2023-01-07T11:34:01.512Z,11.96
2023-01-07T11:36:50.683Z,11.94
2023-01-07T11:39:36.521Z,12.03
2023-01-07T11:42:40.132Z,11.94
2023-01-07T11:45:38.415Z,12.01
2023-01-07T11:48:34.108Z,12.29
2023-01-07T11:51:22.700Z,12.05
2023-01-07T11:54:20.580Z,12.08
2023-01-07T11:57:20.720Z,12.20
2023-01-07T12:00:16.451Z,12.06
2023-01-07T12:03:09.399Z,12.00
2023-01-07T12:06:01.830Z,11.99
2023-01-07T12:08:56.622Z,12.04
2023-01-07T12:11:44.625Z,12.05
2023-01-07T12:14:33.012Z,11.93
2023-01-07T12:17:24.753Z,12.04
2023-01-07T12:20:35.882Z,12.09
2023-01-07T12:23:33.484Z,11.91
2023-01-07T12:26:29.717Z,12.07
2023-01-07T12:29:36.244Z,12.12
2023-01-07T12:32:38.733Z,11.97
2023-01-07T12:35:29.677Z,11.98
2023-01-07T12:38:25.190Z,11.85
2023-01-07T12:41:22.192Z,11.81
2023-01-07T12:44:13.593Z,11.89
2023-01-07T12:47:30.661Z,11.83
2023-01-07T12:50:19.003Z,11.86
2023-01-07T12:53:16.365Z,11.84
2023-01-07T12:56:22.977Z,11.75
2023-01-07T12:59:45.634Z,11.96
2023-01-07T13:02:48.593Z,12.06
2023-01-07T13:05:40.848Z,12.15
2023-01-07T13:08:32.733Z,12.21
2023-01-07T13:11:52.346Z,12.09
2023-01-07T13:14:48.295Z,12.11
2023-01-07T13:17:33.922Z,12.05
2023-01-07T13:20:52.442Z,12.01
2023-01-07T13:24:08.661Z,11.89
2023-01-07T13:27:09.525Z,11.74
2023-01-07T13:30:18.877Z,11.72
2023-01-07T13:33:26.368Z,11.86
2023-01-07T13:36:34.615Z,11.94
2023-01-07T13:39:30.280Z,11.98
2023-01-07T13:42:25.141Z,12.00
2023-01-07T13:45:24.206Z,12.03
2023-01-07T13:48:23.378Z,12.01
2023-01-07T13:51:10.283Z,12.01
2023-01-07T13:53:55.714Z,12.05
2023-01-07T13:56:41.402Z,11.86
2023-01-07T13:59:29.930Z,11.73
2023-01-07T14:02:17.378Z,11.66
2023-01-07T14:05:10.313Z,11.90
2023-01-07T14:07:59.680Z,11.80
2023-01-07T14:10:53.163Z,11.92
2023-01-07T14:13:52.698Z,11.90
2023-01-07T14:17:08.992Z,11.92
2023-01-07T14:20:22.375Z,12.06
2023-01-07T14:23:34.973Z,11.94
2023-01-07T14:26:39.702Z,11.91
2023-01-07T14:29:45.409Z,11.85
2023-01-07T14:32:37.189Z,11.79
2023-01-07T14:35:29.503Z,11.60
2023-01-07T14:38:41.883Z,11.63
2023-01-07T14:41:27.434Z,11.62
2023-01-07T14:44:41.797Z,11.62
2023-01-07T14:47:45.131Z,11.53
2023-01-07T14:51:11.871Z,11.58
2023-01-07T14:54:36.284Z,11.50
2023-01-07T14:57:50.576Z,11.39
2023-01-07T15:01:13.092Z,11.45
2023-01-07T15:04:25.013Z,11.28
2023-01-07T15:07:18.069Z,11.38
2023-01-07T15:10:49.841Z,11.36
2023-01-07T15:14:01.621Z,11.25
2023-01-07T15:16:50.119Z,10.95
2023-01-07T15:19:39.865Z,11.12
2023-01-07T15:22:46.348Z,11.35
2023-01-07T15:25:56.643Z,11.15
2023-01-07T15:28:51.947Z,11.24
2023-01-07T15:31:56.824Z,11.12
2023-01-07T15:34:43.563Z,11.20
2023-01-07T15:37:29.268Z,11.15
2023-01-07T15:40:20.444Z,11.05
2023-01-07T15:43:06.236Z,11.05
2023-01-07T15:45:59.496Z,11.05
2023-01-07T15:48:44.999Z,11.03
2023-01-07T15:51:31.990Z,11.06
2023-01-07T15:54:35.747Z,11.01
2023-01-07T15:57:28.433Z,11.10
2023-01-07T16:00:14.546Z,11.12
2023-01-07T16:03:01.383Z,10.99
2023-01-07T16:05:48.087Z,11.02
2023-01-07T16:08:33.833Z,11.04
2023-01-07T16:11:27.476Z,11.04
2023-01-07T16:14:19.170Z,11.03
2023-01-07T16:17:19.446Z,11.03
2023-01-07T16:20:19.730Z,11.07
2023-01-07T16:23:07.870Z,11.05
2023-01-07T16:26:16.128Z,10.97
2023-01-07T16:29:10.147Z,10.89
2023-01-07T16:31:56.467Z,10.99
2023-01-07T16:34:42.078Z,10.86
2023-01-07T16:37:29.070Z,10.88
2023-01-07T16:40:22.712Z,10.99
2023-01-07T16:43:32.826Z,10.86
2023-01-07T16:46:25.873Z,10.79
2023-01-07T16:49:11.511Z,10.85
2023-01-07T16:52:03.190Z,10.79
2023-01-07T16:54:49.809Z,10.80
2023-01-07T16:57:42.008Z,10.78
2023-01-07T17:00:27.770Z,10.66
2023-01-07T17:03:14.020Z,10.62
2023-01-07T17:06:04.835Z,10.65
2023-01-07T17:08:55.352Z,10.63
2023-01-07T17:11:41.510Z,10.37
2023-01-07T17:14:38.560Z,10.30
2023-01-07T17:17:28.619Z,10.19
2023-01-07T17:20:19.762Z,10.20
2023-01-07T17:23:25.291Z,10.04
2023-01-07T17:26:10.798Z,9.97
2023-01-07T17:28:59.335Z,9.83
2023-01-07T17:31:45.184Z,9.74
2023-01-07T17:34:30.918Z,9.71
2023-01-07T17:37:16.974Z,9.70
2023-01-07T17:40:02.391Z,9.71
2023-01-07T17:43:08.611Z,9.59
2023-01-07T17:45:54.279Z,9.65
2023-01-07T17:48:39.867Z,9.50
2023-01-07T17:51:27.112Z,9.45
2023-01-07T17:54:20.223Z,9.59
2023-01-07T17:57:05.579Z,9.54
2023-01-07T17:59:51.890Z,9.39
2023-01-07T18:02:37.572Z,9.39
2023-01-07T18:05:26.012Z,9.43
2023-01-07T18:08:11.397Z,9.51
2023-01-07T18:11:16.505Z,9.35
2023-01-07T18:14:02.372Z,9.60
2023-01-07T18:16:47.874Z,9.69
2023-01-07T18:19:33.368Z,9.68
2023-01-07T18:22:20.515Z,9.67
2023-01-07T18:25:06.995Z,9.82
2023-01-07T18:27:53.184Z,9.78
2023-01-07T18:30:39.022Z,9.76
2023-01-07T18:33:24.733Z,9.68
2023-01-07T18:36:11.113Z,9.75
2023-01-07T18:38:56.421Z,9.76
2023-01-07T18:41:41.997Z,9.68
2023-01-07T18:44:27.601Z,9.70
2023-01-07T18:47:13.011Z,9.79
2023-01-07T18:49:58.545Z,9.74
2023-01-07T18:52:44.027Z,9.70
2023-01-07T18:55:29.779Z,9.74
2023-01-07T18:58:16.278Z,9.70
2023-01-07T19:01:03.704Z,9.74
2023-01-07T19:03:49.692Z,9.74
2023-01-07T19:06:35.056Z,9.66
2023-01-07T19:09:20.450Z,9.79
2023-01-07T19:12:06.768Z,9.84
2023-01-07T19:14:52.231Z,9.75
2023-01-07T19:17:37.723Z,9.73
2023-01-07T19:20:23.035Z,9.80
2023-01-07T19:23:08.561Z,9.67
2023-01-07T19:26:02.407Z,9.63
2023-01-07T19:28:47.943Z,9.75
2023-01-07T19:31:33.982Z,9.74
2023-01-07T19:34:19.716Z,9.63
2023-01-07T19:37:05.128Z,9.73
2023-01-07T19:39:50.520Z,9.69
2023-01-07T19:42:36.006Z,9.59
2023-01-07T19:45:21.495Z,9.65
2023-01-07T19:48:07.353Z,9.69
2023-01-07T19:50:54.576Z,9.71
2023-01-07T19:53:40.072Z,9.71
2023-01-07T19:56:25.818Z,9.63
2023-01-07T19:59:11.163Z,9.73
2023-01-07T20:01:57.052Z,9.57
2023-01-07T20:04:43.004Z,9.50
2023-01-07T20:07:33.783Z,9.45
2023-01-07T20:10:19.005Z,9.31
2023-01-07T20:13:06.290Z,9.24
2023-01-07T20:15:52.398Z,9.16
2023-01-07T20:18:39.859Z,8.85
2023-01-07T20:21:26.219Z,8.91
2023-01-07T20:24:12.386Z,8.87
2023-01-07T20:26:57.707Z,8.72
2023-01-07T20:29:43.125Z,8.67
2023-01-07T20:32:28.643Z,8.65
2023-01-07T20:35:14.555Z,8.54
2023-01-07T20:38:00.457Z,8.67
2023-01-07T20:40:46.147Z,8.67
2023-01-07T20:43:32.781Z,8.63
2023-01-07T20:46:18.490Z,8.66
2023-01-07T20:49:03.920Z,8.65
2023-01-07T20:51:49.770Z,8.54
2023-01-07T20:54:35.359Z,8.56
2023-01-07T20:57:21.065Z,8.56
2023-01-07T21:00:07.119Z,8.57
2023-01-07T21:02:52.630Z,8.60
2023-01-07T21:05:38.217Z,8.63
2023-01-07T21:08:24.257Z,8.60
2023-01-07T21:11:15.247Z,8.69
2023-01-07T21:14:00.621Z,8.59
2023-01-07T21:16:46.403Z,8.60
2023-01-07T21:19:31.689Z,8.73
2023-01-07T21:22:17.212Z,8.73
2023-01-07T21:25:02.752Z,8.59
2023-01-07T21:27:48.521Z,8.69
2023-01-07T21:30:35.199Z,8.74
2023-01-07T21:33:20.488Z,8.65
2023-01-07T21:36:17.085Z,8.74
2023-01-07T21:39:02.902Z,8.70
2023-01-07T21:41:48.576Z,8.76
2023-01-07T21:44:34.109Z,8.67
2023-01-07T21:47:19.766Z,8.62
2023-01-07T21:50:05.392Z,8.62
2023-01-07T21:52:50.796Z,8.59
2023-01-07T21:55:39.433Z,8.52
2023-01-07T21:58:24.718Z,8.57
2023-01-07T22:01:11.037Z,8.55
2023-01-07T22:03:58.530Z,8.63
2023-01-07T22:06:43.926Z,8.58
2023-01-07T22:09:29.529Z,8.65
2023-01-07T22:12:15.553Z,8.47
2023-01-07T22:15:01.052Z,8.31
2023-01-07T22:17:46.743Z,8.34
2023-01-07T22:20:32.309Z,8.36
2023-01-07T22:23:18.056Z,8.38
2023-01-07T22:26:05.419Z,8.23
2023-01-07T22:28:56.575Z,8.21
2023-01-07T22:31:42.191Z,8.14
2023-01-07T22:34:27.587Z,8.15
2023-01-07T22:37:17.544Z,8.15
2023-01-07T22:40:06.212Z,8.24
2023-01-07T22:42:56.885Z,8.20
2023-01-07T22:45:56.662Z,8.26
2023-01-07T22:48:42.512Z,8.25
2023-01-07T22:51:31.659Z,8.36
2023-01-07T22:54:17.953Z,8.28
2023-01-07T22:57:06.010Z,8.31
2023-01-07T22:59:51.576Z,8.13
2023-01-07T23:02:37.324Z,8.35
2023-01-07T23:05:22.748Z,8.33
2023-01-07T23:08:09.106Z,8.35
2023-01-07T23:10:54.753Z,8.23
2023-01-07T23:13:40.083Z,8.35
2023-01-07T23:16:25.783Z,8.41
2023-01-07T23:19:11.822Z,8.42
2023-01-07T23:21:57.021Z,8.44
2023-01-07T23:24:42.425Z,8.43
2023-01-07T23:27:28.081Z,8.57
2023-01-07T23:30:14.286Z,8.39
2023-01-07T23:32:59.703Z,8.52
2023-01-07T23:35:45.291Z,8.39
2023-01-07T23:38:30.971Z,8.50
2023-01-07T23:41:16.699Z,8.53
2023-01-07T23:44:02.036Z,8.53
2023-01-07T23:46:47.345Z,8.50
2023-01-07T23:49:32.787Z,8.48
2023-01-07T23:52:19.032Z,8.60
2023-01-07T23:55:05.533Z,8.57
2023-01-07T23:57:51.184Z,8.52
